sensor_id;sensor_type;location;lat;lon;timestamp;temperature;humidity
11239;DHT22;5677;48.488;13.436;2023-02-08T00:00:01;11.00;37.50
11239;DHT22;5677;48.488;13.436;2023-02-08T00:02:28;11.10;37.60
11239;DHT22;5677;48.488;13.436;2023-02-08T00:04:55;11.00;37.60
11239;DHT22;5677;48.488;13.436;2023-02-08T00:07:22;11.00;37.60
11239;DHT22;5677;48.488;13.436;2023-02-08T00:09:50;11.00;37.60
11239;DHT22;5677;48.488;13.436;2023-02-08T00:12:16;11.00;37.50
11239;DHT22;5677;48.488;13.436;2023-02-08T00:14:43;11.00;37.50
11239;DHT22;5677;48.488;13.436;2023-02-08T00:17:11;11.00;37.60
11239;DHT22;5677;48.488;13.436;2023-02-08T00:19:38;11.00;37.60
11239;DHT22;5677;48.488;13.436;2023-02-08T00:22:05;11.00;37.60
11239;DHT22;5677;48.488;13.436;2023-02-08T00:24:31;11.00;37.60
11239;DHT22;5677;48.488;13.436;2023-02-08T00:26:58;11.00;37.60
11239;DHT22;5677;48.488;13.436;2023-02-08T00:29:25;11.00;37.60
11239;DHT22;5677;48.488;13.436;2023-02-08T00:31:52;11.00;37.60
11239;DHT22;5677;48.488;13.436;2023-02-08T00:34:20;11.00;37.60
11239;DHT22;5677;48.488;13.436;2023-02-08T00:36:47;11.00;37.60
11239;DHT22;5677;48.488;13.436;2023-02-08T00:39:13;11.00;37.60
11239;DHT22;5677;48.488;13.436;2023-02-08T00:41:40;11.00;37.60
11239;DHT22;5677;48.488;13.436;2023-02-08T00:44:07;11.00;37.70
11239;DHT22;5677;48.488;13.436;2023-02-08T00:46:34;10.90;37.60
11239;DHT22;5677;48.488;13.436;2023-02-08T00:49:00;11.00;37.60
11239;DHT22;5677;48.488;13.436;2023-02-08T00:51:29;10.90;37.60
11239;DHT22;5677;48.488;13.436;2023-02-08T00:53:56;11.00;37.60
11239;DHT22;5677;48.488;13.436;2023-02-08T00:56:23;11.00;37.60
11239;DHT22;5677;48.488;13.436;2023-02-08T00:58:50;11.00;37.60
11239;DHT22;5677;48.488;13.436;2023-02-08T01:01:16;10.90;37.70
11239;DHT22;5677;48.488;13.436;2023-02-08T01:03:43;10.90;37.70
11239;DHT22;5677;48.488;13.436;2023-02-08T01:06:13;10.90;37.70
11239;DHT22;5677;48.488;13.436;2023-02-08T01:08:42;10.90;37.70
11239;DHT22;5677;48.488;13.436;2023-02-08T01:11:11;10.90;37.60
11239;DHT22;5677;48.488;13.436;2023-02-08T01:13:38;10.90;37.70
11239;DHT22;5677;48.488;13.436;2023-02-08T01:16:07;10.90;37.60
11239;DHT22;5677;48.488;13.436;2023-02-08T01:18:34;10.90;37.70
11239;DHT22;5677;48.488;13.436;2023-02-08T01:21:06;10.90;37.70
11239;DHT22;5677;48.488;13.436;2023-02-08T01:23:33;10.90;37.70
11239;DHT22;5677;48.488;13.436;2023-02-08T01:26:02;10.90;37.70
11239;DHT22;5677;48.488;13.436;2023-02-08T01:28:29;10.90;37.70
11239;DHT22;5677;48.488;13.436;2023-02-08T01:30:55;10.90;37.70
11239;DHT22;5677;48.488;13.436;2023-02-08T01:33:22;10.90;37.70
11239;DHT22;5677;48.488;13.436;2023-02-08T01:35:50;10.90;37.70
11239;DHT22;5677;48.488;13.436;2023-02-08T01:38:18;10.90;37.70
11239;DHT22;5677;48.488;13.436;2023-02-08T01:40:45;10.90;37.80
11239;DHT22;5677;48.488;13.436;2023-02-08T01:43:19;10.90;37.70
11239;DHT22;5677;48.488;13.436;2023-02-08T01:45:47;10.90;37.70
11239;DHT22;5677;48.488;13.436;2023-02-08T01:48:16;10.80;37.70
11239;DHT22;5677;48.488;13.436;2023-02-08T01:50:47;10.90;37.80
11239;DHT22;5677;48.488;13.436;2023-02-08T01:53:17;10.80;37.70
11239;DHT22;5677;48.488;13.436;2023-02-08T01:55:46;10.80;37.80
11239;DHT22;5677;48.488;13.436;2023-02-08T01:58:15;10.80;37.70
11239;DHT22;5677;48.488;13.436;2023-02-08T02:00:42;10.80;37.70
11239;DHT22;5677;48.488;13.436;2023-02-08T02:03:09;10.80;37.80
11239;DHT22;5677;48.488;13.436;2023-02-08T02:05:39;10.80;37.70
11239;DHT22;5677;48.488;13.436;2023-02-08T02:08:07;10.80;37.70
11239;DHT22;5677;48.488;13.436;2023-02-08T02:10:35;10.80;37.70
11239;DHT22;5677;48.488;13.436;2023-02-08T02:13:05;10.80;37.80
11239;DHT22;5677;48.488;13.436;2023-02-08T02:15:34;10.80;37.70
11239;DHT22;5677;48.488;13.436;2023-02-08T02:18:02;10.80;37.70
11239;DHT22;5677;48.488;13.436;2023-02-08T02:20:43;10.80;37.70
11239;DHT22;5677;48.488;13.436;2023-02-08T02:23:40;10.80;37.70
11239;DHT22;5677;48.488;13.436;2023-02-08T02:32:39;10.80;38.30
11239;DHT22;5677;48.488;13.436;2023-02-08T02:35:14;10.80;37.70
11239;DHT22;5677;48.488;13.436;2023-02-08T02:37:50;10.80;37.70
11239;DHT22;5677;48.488;13.436;2023-02-08T02:40:24;10.80;37.70
11239;DHT22;5677;48.488;13.436;2023-02-08T02:43:00;10.80;37.80
11239;DHT22;5677;48.488;13.436;2023-02-08T02:45:51;10.80;37.80
11239;DHT22;5677;48.488;13.436;2023-02-08T02:48:27;10.80;37.80
11239;DHT22;5677;48.488;13.436;2023-02-08T02:50:59;10.80;37.70
11239;DHT22;5677;48.488;13.436;2023-02-08T02:53:34;10.80;37.80
11239;DHT22;5677;48.488;13.436;2023-02-08T02:56:07;10.80;37.80
11239;DHT22;5677;48.488;13.436;2023-02-08T02:58:36;10.80;37.80
11239;DHT22;5677;48.488;13.436;2023-02-08T03:01:04;10.80;37.80
11239;DHT22;5677;48.488;13.436;2023-02-08T03:03:33;10.80;37.80
11239;DHT22;5677;48.488;13.436;2023-02-08T03:06:03;10.80;37.90
11239;DHT22;5677;48.488;13.436;2023-02-08T03:08:56;10.80;37.80
11239;DHT22;5677;48.488;13.436;2023-02-08T03:11:28;10.80;37.90
11239;DHT22;5677;48.488;13.436;2023-02-08T03:14:18;10.80;37.90
11239;DHT22;5677;48.488;13.436;2023-02-08T03:16:59;10.80;38.20
11239;DHT22;5677;48.488;13.436;2023-02-08T03:19:34;10.80;38.10
11239;DHT22;5677;48.488;13.436;2023-02-08T03:22:05;10.80;38.10
11239;DHT22;5677;48.488;13.436;2023-02-08T03:24:41;10.80;38.00
11239;DHT22;5677;48.488;13.436;2023-02-08T03:27:15;10.70;38.10
11239;DHT22;5677;48.488;13.436;2023-02-08T03:29:49;10.70;38.10
11239;DHT22;5677;48.488;13.436;2023-02-08T03:32:23;10.80;38.10
11239;DHT22;5677;48.488;13.436;2023-02-08T03:34:54;10.80;38.10
11239;DHT22;5677;48.488;13.436;2023-02-08T03:37:26;10.70;38.00
11239;DHT22;5677;48.488;13.436;2023-02-08T03:39:58;10.70;38.10
11239;DHT22;5677;48.488;13.436;2023-02-08T03:42:30;10.80;38.10
11239;DHT22;5677;48.488;13.436;2023-02-08T03:45:00;10.70;38.10
11239;DHT22;5677;48.488;13.436;2023-02-08T03:47:29;10.70;38.20
11239;DHT22;5677;48.488;13.436;2023-02-08T03:50:02;10.70;38.10
11239;DHT22;5677;48.488;13.436;2023-02-08T03:52:31;10.70;38.10
11239;DHT22;5677;48.488;13.436;2023-02-08T03:55:01;10.70;38.10
11239;DHT22;5677;48.488;13.436;2023-02-08T03:57:33;10.70;38.20
11239;DHT22;5677;48.488;13.436;2023-02-08T04:00:04;10.70;38.20
11239;DHT22;5677;48.488;13.436;2023-02-08T04:02:35;10.70;38.10
11239;DHT22;5677;48.488;13.436;2023-02-08T04:05:05;10.70;38.10
11239;DHT22;5677;48.488;13.436;2023-02-08T04:07:33;10.70;38.20
11239;DHT22;5677;48.488;13.436;2023-02-08T04:09:59;10.70;38.20
11239;DHT22;5677;48.488;13.436;2023-02-08T04:12:26;10.70;38.20
11239;DHT22;5677;48.488;13.436;2023-02-08T04:14:53;10.70;38.20
11239;DHT22;5677;48.488;13.436;2023-02-08T04:17:20;10.70;38.20
11239;DHT22;5677;48.488;13.436;2023-02-08T04:19:46;10.70;38.20
11239;DHT22;5677;48.488;13.436;2023-02-08T04:22:14;10.70;38.20
11239;DHT22;5677;48.488;13.436;2023-02-08T04:24:41;10.70;38.20
11239;DHT22;5677;48.488;13.436;2023-02-08T04:27:08;10.70;38.30
11239;DHT22;5677;48.488;13.436;2023-02-08T04:29:34;10.70;38.20
11239;DHT22;5677;48.488;13.436;2023-02-08T04:32:01;10.70;38.30
11239;DHT22;5677;48.488;13.436;2023-02-08T04:34:29;10.70;38.30
11239;DHT22;5677;48.488;13.436;2023-02-08T04:36:56;10.70;38.30
11239;DHT22;5677;48.488;13.436;2023-02-08T04:39:24;10.70;38.30
11239;DHT22;5677;48.488;13.436;2023-02-08T04:41:51;10.70;38.30
11239;DHT22;5677;48.488;13.436;2023-02-08T04:44:18;10.70;38.30
11239;DHT22;5677;48.488;13.436;2023-02-08T04:46:45;10.70;38.30
11239;DHT22;5677;48.488;13.436;2023-02-08T04:49:12;10.60;38.30
11239;DHT22;5677;48.488;13.436;2023-02-08T04:51:38;10.60;38.30
11239;DHT22;5677;48.488;13.436;2023-02-08T04:54:05;10.60;38.20
11239;DHT22;5677;48.488;13.436;2023-02-08T04:56:34;10.70;38.30
11239;DHT22;5677;48.488;13.436;2023-02-08T04:59:01;10.70;38.30
11239;DHT22;5677;48.488;13.436;2023-02-08T05:01:28;10.70;38.30
11239;DHT22;5677;48.488;13.436;2023-02-08T05:03:55;10.60;38.30
11239;DHT22;5677;48.488;13.436;2023-02-08T05:06:22;10.60;38.30
11239;DHT22;5677;48.488;13.436;2023-02-08T05:08:48;10.60;38.30
11239;DHT22;5677;48.488;13.436;2023-02-08T05:11:19;10.60;38.30
11239;DHT22;5677;48.488;13.436;2023-02-08T05:13:47;10.60;38.30
11239;DHT22;5677;48.488;13.436;2023-02-08T05:16:14;10.70;38.40
11239;DHT22;5677;48.488;13.436;2023-02-08T05:18:41;10.60;38.30
11239;DHT22;5677;48.488;13.436;2023-02-08T05:21:08;10.70;38.40
11239;DHT22;5677;48.488;13.436;2023-02-08T05:23:36;10.60;38.30
11239;DHT22;5677;48.488;13.436;2023-02-08T05:26:05;10.60;38.30
11239;DHT22;5677;48.488;13.436;2023-02-08T05:28:32;10.60;38.30
11239;DHT22;5677;48.488;13.436;2023-02-08T05:31:08;10.60;38.30
11239;DHT22;5677;48.488;13.436;2023-02-08T05:33:35;10.60;38.30
11239;DHT22;5677;48.488;13.436;2023-02-08T05:36:02;10.60;38.30
11239;DHT22;5677;48.488;13.436;2023-02-08T05:38:28;10.60;38.30
11239;DHT22;5677;48.488;13.436;2023-02-08T05:40:55;10.60;38.30
11239;DHT22;5677;48.488;13.436;2023-02-08T05:43:22;10.60;38.30
11239;DHT22;5677;48.488;13.436;2023-02-08T05:45:49;10.60;38.20
11239;DHT22;5677;48.488;13.436;2023-02-08T05:48:17;10.60;38.30
11239;DHT22;5677;48.488;13.436;2023-02-08T05:50:44;10.60;38.30
11239;DHT22;5677;48.488;13.436;2023-02-08T05:53:11;10.60;38.30
11239;DHT22;5677;48.488;13.436;2023-02-08T05:55:38;10.60;38.30
11239;DHT22;5677;48.488;13.436;2023-02-08T05:58:05;10.60;38.30
11239;DHT22;5677;48.488;13.436;2023-02-08T06:00:31;10.60;38.30
11239;DHT22;5677;48.488;13.436;2023-02-08T06:02:58;10.60;38.30
11239;DHT22;5677;48.488;13.436;2023-02-08T06:05:26;10.60;38.30
11239;DHT22;5677;48.488;13.436;2023-02-08T06:07:54;10.60;38.30
11239;DHT22;5677;48.488;13.436;2023-02-08T06:10:21;10.60;38.30
11239;DHT22;5677;48.488;13.436;2023-02-08T06:12:48;10.60;38.30
11239;DHT22;5677;48.488;13.436;2023-02-08T06:15:15;10.60;38.30
11239;DHT22;5677;48.488;13.436;2023-02-08T06:17:41;10.60;38.40
11239;DHT22;5677;48.488;13.436;2023-02-08T06:20:09;10.60;38.30
11239;DHT22;5677;48.488;13.436;2023-02-08T06:22:37;10.60;38.50
11239;DHT22;5677;48.488;13.436;2023-02-08T06:25:04;10.60;38.60
11239;DHT22;5677;48.488;13.436;2023-02-08T06:27:31;10.60;38.60
11239;DHT22;5677;48.488;13.436;2023-02-08T06:29:58;10.60;38.50
11239;DHT22;5677;48.488;13.436;2023-02-08T06:32:25;10.50;31.60
11239;DHT22;5677;48.488;13.436;2023-02-08T06:34:52;10.40;34.80
11239;DHT22;5677;48.488;13.436;2023-02-08T06:37:18;10.30;36.60
11239;DHT22;5677;48.488;13.436;2023-02-08T06:39:46;10.10;29.00
11239;DHT22;5677;48.488;13.436;2023-02-08T06:42:14;9.90;34.10
11239;DHT22;5677;48.488;13.436;2023-02-08T06:44:41;10.00;36.90
11239;DHT22;5677;48.488;13.436;2023-02-08T06:47:07;10.00;36.80
11239;DHT22;5677;48.488;13.436;2023-02-08T06:49:34;10.00;36.60
11239;DHT22;5677;48.488;13.436;2023-02-08T06:52:01;10.10;36.60
11239;DHT22;5677;48.488;13.436;2023-02-08T06:54:28;10.20;36.60
11239;DHT22;5677;48.488;13.436;2023-02-08T06:56:56;10.10;35.70
11239;DHT22;5677;48.488;13.436;2023-02-08T06:59:22;10.10;36.50
11239;DHT22;5677;48.488;13.436;2023-02-08T07:01:49;10.20;36.60
11239;DHT22;5677;48.488;13.436;2023-02-08T07:04:16;10.20;36.40
11239;DHT22;5677;48.488;13.436;2023-02-08T07:06:43;10.30;36.50
11239;DHT22;5677;48.488;13.436;2023-02-08T07:09:12;10.30;36.40
11239;DHT22;5677;48.488;13.436;2023-02-08T07:11:39;10.30;36.20
11239;DHT22;5677;48.488;13.436;2023-02-08T07:14:10;10.30;36.30
11239;DHT22;5677;48.488;13.436;2023-02-08T07:16:37;10.40;36.20
11239;DHT22;5677;48.488;13.436;2023-02-08T07:19:04;10.40;36.10
11239;DHT22;5677;48.488;13.436;2023-02-08T07:21:31;10.40;36.10
11239;DHT22;5677;48.488;13.436;2023-02-08T07:23:58;10.50;36.10
11239;DHT22;5677;48.488;13.436;2023-02-08T07:26:24;10.50;36.10
11239;DHT22;5677;48.488;13.436;2023-02-08T07:28:51;10.40;34.90
11239;DHT22;5677;48.488;13.436;2023-02-08T07:31:19;10.40;35.60
11239;DHT22;5677;48.488;13.436;2023-02-08T07:33:46;10.40;35.60
11239;DHT22;5677;48.488;13.436;2023-02-08T07:36:12;10.50;35.60
11239;DHT22;5677;48.488;13.436;2023-02-08T07:38:39;10.50;35.60
11239;DHT22;5677;48.488;13.436;2023-02-08T07:41:08;10.60;37.80
11239;DHT22;5677;48.488;13.436;2023-02-08T07:43:36;10.60;38.00
11239;DHT22;5677;48.488;13.436;2023-02-08T07:46:07;10.70;38.10
11239;DHT22;5677;48.488;13.436;2023-02-08T07:48:36;10.80;37.80
11239;DHT22;5677;48.488;13.436;2023-02-08T07:51:03;10.90;37.70
11239;DHT22;5677;48.488;13.436;2023-02-08T07:53:30;11.00;37.60
11239;DHT22;5677;48.488;13.436;2023-02-08T07:55:58;11.00;37.50
11239;DHT22;5677;48.488;13.436;2023-02-08T07:58:25;11.10;37.50
11239;DHT22;5677;48.488;13.436;2023-02-08T08:00:52;11.20;37.50
11239;DHT22;5677;48.488;13.436;2023-02-08T08:03:19;11.20;35.00
11239;DHT22;5677;48.488;13.436;2023-02-08T08:05:48;11.20;37.50
11239;DHT22;5677;48.488;13.436;2023-02-08T08:08:16;11.30;37.40
11239;DHT22;5677;48.488;13.436;2023-02-08T08:10:43;11.40;37.00
11239;DHT22;5677;48.488;13.436;2023-02-08T08:13:11;11.40;36.90
11239;DHT22;5677;48.488;13.436;2023-02-08T08:15:38;11.50;36.80
11239;DHT22;5677;48.488;13.436;2023-02-08T08:18:06;11.60;36.70
11239;DHT22;5677;48.488;13.436;2023-02-08T08:20:33;11.70;36.60
11239;DHT22;5677;48.488;13.436;2023-02-08T08:23:01;11.80;36.40
11239;DHT22;5677;48.488;13.436;2023-02-08T08:25:28;11.80;28.50
11239;DHT22;5677;48.488;13.436;2023-02-08T08:27:55;11.80;33.80
11239;DHT22;5677;48.488;13.436;2023-02-08T08:30:22;11.80;31.80
11239;DHT22;5677;48.488;13.436;2023-02-08T08:32:49;11.90;34.40
11239;DHT22;5677;48.488;13.436;2023-02-08T08:35:16;12.00;34.00
11239;DHT22;5677;48.488;13.436;2023-02-08T08:37:42;12.10;34.60
11239;DHT22;5677;48.488;13.436;2023-02-08T08:40:11;12.20;34.50
11239;DHT22;5677;48.488;13.436;2023-02-08T08:42:38;12.30;34.80
11239;DHT22;5677;48.488;13.436;2023-02-08T08:45:06;12.50;34.80
11239;DHT22;5677;48.488;13.436;2023-02-08T08:47:33;12.60;34.80
11239;DHT22;5677;48.488;13.436;2023-02-08T08:50:00;12.70;34.70
11239;DHT22;5677;48.488;13.436;2023-02-08T08:52:27;12.90;34.60
11239;DHT22;5677;48.488;13.436;2023-02-08T08:54:53;13.00;34.40
11239;DHT22;5677;48.488;13.436;2023-02-08T08:57:21;13.20;34.20
11239;DHT22;5677;48.488;13.436;2023-02-08T08:59:48;13.30;34.00
11239;DHT22;5677;48.488;13.436;2023-02-08T09:02:15;13.40;33.80
11239;DHT22;5677;48.488;13.436;2023-02-08T09:04:42;13.50;33.70
11239;DHT22;5677;48.488;13.436;2023-02-08T09:07:09;13.50;33.60
11239;DHT22;5677;48.488;13.436;2023-02-08T09:09:36;13.60;33.50
11239;DHT22;5677;48.488;13.436;2023-02-08T09:12:03;13.40;24.00
11239;DHT22;5677;48.488;13.436;2023-02-08T09:14:32;13.20;26.50
11239;DHT22;5677;48.488;13.436;2023-02-08T09:16:59;13.10;30.10
11239;DHT22;5677;48.488;13.436;2023-02-08T09:19:26;13.10;31.20
11239;DHT22;5677;48.488;13.436;2023-02-08T09:21:55;13.10;31.70
11239;DHT22;5677;48.488;13.436;2023-02-08T09:24:22;13.10;31.80
11239;DHT22;5677;48.488;13.436;2023-02-08T09:26:49;13.10;31.90
11239;DHT22;5677;48.488;13.436;2023-02-08T09:29:16;13.10;33.20
11239;DHT22;5677;48.488;13.436;2023-02-08T09:31:44;13.10;35.00
11239;DHT22;5677;48.488;13.436;2023-02-08T09:34:11;13.10;42.60
11239;DHT22;5677;48.488;13.436;2023-02-08T09:36:39;13.00;35.40
11239;DHT22;5677;48.488;13.436;2023-02-08T09:39:09;13.00;33.50
11239;DHT22;5677;48.488;13.436;2023-02-08T09:41:47;12.90;32.00
11239;DHT22;5677;48.488;13.436;2023-02-08T09:44:22;12.90;32.10
11239;DHT22;5677;48.488;13.436;2023-02-08T09:46:59;12.80;32.40
11239;DHT22;5677;48.488;13.436;2023-02-08T09:49:30;12.70;33.60
11239;DHT22;5677;48.488;13.436;2023-02-08T09:52:01;12.70;34.80
11239;DHT22;5677;48.488;13.436;2023-02-08T09:54:32;12.60;38.80
11239;DHT22;5677;48.488;13.436;2023-02-08T09:57:00;12.60;30.60
11239;DHT22;5677;48.488;13.436;2023-02-08T09:59:30;12.30;23.90
11239;DHT22;5677;48.488;13.436;2023-02-08T10:02:03;12.20;27.90
11239;DHT22;5677;48.488;13.436;2023-02-08T10:04:40;12.20;29.60
11239;DHT22;5677;48.488;13.436;2023-02-08T10:07:10;12.10;30.70
11239;DHT22;5677;48.488;13.436;2023-02-08T10:09:37;12.20;31.20
11239;DHT22;5677;48.488;13.436;2023-02-08T10:12:12;12.10;31.50
11239;DHT22;5677;48.488;13.436;2023-02-08T10:14:52;12.20;32.30
11239;DHT22;5677;48.488;13.436;2023-02-08T10:18:00;12.20;31.80
11239;DHT22;5677;48.488;13.436;2023-02-08T10:20:38;12.00;23.10
11239;DHT22;5677;48.488;13.436;2023-02-08T10:23:19;11.80;23.40
11239;DHT22;5677;48.488;13.436;2023-02-08T10:26:09;11.60;26.40
11239;DHT22;5677;48.488;13.436;2023-02-08T10:29:02;11.60;28.30
11239;DHT22;5677;48.488;13.436;2023-02-08T10:31:42;11.60;29.50
11239;DHT22;5677;48.488;13.436;2023-02-08T10:34:23;11.60;30.10
11239;DHT22;5677;48.488;13.436;2023-02-08T10:36:52;11.60;30.50
11239;DHT22;5677;48.488;13.436;2023-02-08T10:39:24;11.70;30.80
11239;DHT22;5677;48.488;13.436;2023-02-08T10:41:52;11.70;31.00
11239;DHT22;5677;48.488;13.436;2023-02-08T10:44:24;11.70;31.10
11239;DHT22;5677;48.488;13.436;2023-02-08T10:46:59;11.70;31.40
11239;DHT22;5677;48.488;13.436;2023-02-08T10:49:36;11.70;31.40
11239;DHT22;5677;48.488;13.436;2023-02-08T10:52:04;11.70;31.50
11239;DHT22;5677;48.488;13.436;2023-02-08T10:54:32;11.70;31.60
11239;DHT22;5677;48.488;13.436;2023-02-08T10:57:01;11.70;31.70
11239;DHT22;5677;48.488;13.436;2023-02-08T10:59:31;11.70;31.80
11239;DHT22;5677;48.488;13.436;2023-02-08T11:01:58;11.70;32.50
11239;DHT22;5677;48.488;13.436;2023-02-08T11:04:25;11.70;32.70
11239;DHT22;5677;48.488;13.436;2023-02-08T11:06:54;11.60;32.50
11239;DHT22;5677;48.488;13.436;2023-02-08T11:09:23;11.60;32.50
11239;DHT22;5677;48.488;13.436;2023-02-08T11:11:51;11.60;32.50
11239;DHT22;5677;48.488;13.436;2023-02-08T11:14:19;11.60;32.60
11239;DHT22;5677;48.488;13.436;2023-02-08T11:16:49;11.60;32.60
11239;DHT22;5677;48.488;13.436;2023-02-08T11:19:22;11.60;32.70
11239;DHT22;5677;48.488;13.436;2023-02-08T11:21:51;11.60;32.80
11239;DHT22;5677;48.488;13.436;2023-02-08T11:24:26;11.50;32.80
11239;DHT22;5677;48.488;13.436;2023-02-08T11:26:53;11.50;33.00
11239;DHT22;5677;48.488;13.436;2023-02-08T11:29:23;11.50;33.20
11239;DHT22;5677;48.488;13.436;2023-02-08T11:31:59;11.50;33.80
11239;DHT22;5677;48.488;13.436;2023-02-08T11:34:28;11.50;34.00
11239;DHT22;5677;48.488;13.436;2023-02-08T11:36:56;11.50;34.40
11239;DHT22;5677;48.488;13.436;2023-02-08T11:39:27;11.50;34.20
11239;DHT22;5677;48.488;13.436;2023-02-08T11:41:57;11.60;34.00
11239;DHT22;5677;48.488;13.436;2023-02-08T11:44:27;11.60;33.90
11239;DHT22;5677;48.488;13.436;2023-02-08T11:46:57;11.50;34.30
11239;DHT22;5677;48.488;13.436;2023-02-08T11:49:29;11.50;35.30
11239;DHT22;5677;48.488;13.436;2023-02-08T11:51:57;11.50;35.30
11239;DHT22;5677;48.488;13.436;2023-02-08T11:54:34;11.50;35.30
11239;DHT22;5677;48.488;13.436;2023-02-08T11:57:08;11.50;35.20
11239;DHT22;5677;48.488;13.436;2023-02-08T11:59:36;11.50;35.20
11239;DHT22;5677;48.488;13.436;2023-02-08T12:04:59;11.60;34.70
11239;DHT22;5677;48.488;13.436;2023-02-08T12:07:34;11.60;34.70
11239;DHT22;5677;48.488;13.436;2023-02-08T12:10:17;11.60;35.30
11239;DHT22;5677;48.488;13.436;2023-02-08T12:13:21;11.70;34.70
11239;DHT22;5677;48.488;13.436;2023-02-08T12:16:04;11.90;35.00
11239;DHT22;5677;48.488;13.436;2023-02-08T12:18:42;12.30;34.70
11239;DHT22;5677;48.488;13.436;2023-02-08T12:21:16;12.80;34.20
11239;DHT22;5677;48.488;13.436;2023-02-08T12:23:54;13.40;33.50
11239;DHT22;5677;48.488;13.436;2023-02-08T12:26:37;14.00;32.80
11239;DHT22;5677;48.488;13.436;2023-02-08T12:29:26;14.50;32.00
11239;DHT22;5677;48.488;13.436;2023-02-08T12:32:04;14.90;31.00
11239;DHT22;5677;48.488;13.436;2023-02-08T12:34:45;15.10;30.40
11239;DHT22;5677;48.488;13.436;2023-02-08T12:37:33;15.20;30.00
11239;DHT22;5677;48.488;13.436;2023-02-08T12:40:32;15.20;29.80
11239;DHT22;5677;48.488;13.436;2023-02-08T12:43:40;15.10;29.90
11239;DHT22;5677;48.488;13.436;2023-02-08T12:46:21;14.90;30.20
11239;DHT22;5677;48.488;13.436;2023-02-08T12:49:13;14.80;30.40
11239;DHT22;5677;48.488;13.436;2023-02-08T12:51:51;14.60;30.50
11239;DHT22;5677;48.488;13.436;2023-02-08T12:54:29;14.60;30.70
11239;DHT22;5677;48.488;13.436;2023-02-08T12:56:58;14.60;30.80
11239;DHT22;5677;48.488;13.436;2023-02-08T12:59:32;14.60;31.10
11239;DHT22;5677;48.488;13.436;2023-02-08T13:02:10;14.80;31.10
11239;DHT22;5677;48.488;13.436;2023-02-08T13:04:41;15.10;30.70
11239;DHT22;5677;48.488;13.436;2023-02-08T13:07:14;15.40;30.20
11239;DHT22;5677;48.488;13.436;2023-02-08T13:09:47;15.80;29.70
11239;DHT22;5677;48.488;13.436;2023-02-08T13:12:18;15.90;29.20
11239;DHT22;5677;48.488;13.436;2023-02-08T13:14:50;15.80;29.00
11239;DHT22;5677;48.488;13.436;2023-02-08T13:17:21;15.60;29.30
11239;DHT22;5677;48.488;13.436;2023-02-08T13:19:53;15.20;29.60
11239;DHT22;5677;48.488;13.436;2023-02-08T13:22:21;14.90;30.00
11239;DHT22;5677;48.488;13.436;2023-02-08T13:24:48;14.50;30.30
11239;DHT22;5677;48.488;13.436;2023-02-08T13:27:18;14.20;31.30
11239;DHT22;5677;48.488;13.436;2023-02-08T13:29:48;13.90;31.90
11239;DHT22;5677;48.488;13.436;2023-02-08T13:32:19;13.60;32.10
11239;DHT22;5677;48.488;13.436;2023-02-08T13:34:49;13.40;32.40
11239;DHT22;5677;48.488;13.436;2023-02-08T13:37:20;13.20;32.60
11239;DHT22;5677;48.488;13.436;2023-02-08T13:39:48;13.00;32.80
11239;DHT22;5677;48.488;13.436;2023-02-08T13:42:19;12.90;33.10
11239;DHT22;5677;48.488;13.436;2023-02-08T13:44:51;12.70;34.70
11239;DHT22;5677;48.488;13.436;2023-02-08T13:47:23;12.60;33.40
11239;DHT22;5677;48.488;13.436;2023-02-08T13:49:54;12.50;33.50
11239;DHT22;5677;48.488;13.436;2023-02-08T13:52:50;12.40;33.60
11239;DHT22;5677;48.488;13.436;2023-02-08T13:55:43;12.30;33.70
11239;DHT22;5677;48.488;13.436;2023-02-08T13:58:36;12.30;33.80
11239;DHT22;5677;48.488;13.436;2023-02-08T14:01:21;12.20;33.90
11239;DHT22;5677;48.488;13.436;2023-02-08T14:04:22;12.10;34.00
11239;DHT22;5677;48.488;13.436;2023-02-08T14:06:56;12.10;34.00
11239;DHT22;5677;48.488;13.436;2023-02-08T14:09:29;12.00;34.40
11239;DHT22;5677;48.488;13.436;2023-02-08T14:12:01;12.00;35.40
11239;DHT22;5677;48.488;13.436;2023-02-08T14:14:33;12.00;36.50
11239;DHT22;5677;48.488;13.436;2023-02-08T14:17:15;12.00;37.10
11239;DHT22;5677;48.488;13.436;2023-02-08T14:19:45;12.00;37.70
11239;DHT22;5677;48.488;13.436;2023-02-08T14:22:20;12.00;37.10
11239;DHT22;5677;48.488;13.436;2023-02-08T14:24:57;12.00;37.30
11239;DHT22;5677;48.488;13.436;2023-02-08T14:27:26;12.00;37.10
11239;DHT22;5677;48.488;13.436;2023-02-08T14:29:58;12.00;36.80
11239;DHT22;5677;48.488;13.436;2023-02-08T14:32:30;12.00;36.50
11239;DHT22;5677;48.488;13.436;2023-02-08T14:35:00;11.90;36.30
11239;DHT22;5677;48.488;13.436;2023-02-08T14:37:30;11.90;36.10
11239;DHT22;5677;48.488;13.436;2023-02-08T14:40:33;11.90;36.10
11239;DHT22;5677;48.488;13.436;2023-02-08T14:43:30;11.80;36.00
11239;DHT22;5677;48.488;13.436;2023-02-08T14:45:57;11.80;35.90
11239;DHT22;5677;48.488;13.436;2023-02-08T14:48:47;11.80;35.90
11239;DHT22;5677;48.488;13.436;2023-02-08T14:51:16;11.70;35.90
11239;DHT22;5677;48.488;13.436;2023-02-08T14:53:47;11.70;35.80
11239;DHT22;5677;48.488;13.436;2023-02-08T14:56:19;11.70;35.80
11239;DHT22;5677;48.488;13.436;2023-02-08T14:58:49;11.70;35.80
11239;DHT22;5677;48.488;13.436;2023-02-08T15:01:19;11.60;35.80
11239;DHT22;5677;48.488;13.436;2023-02-08T15:03:49;11.60;35.70
11239;DHT22;5677;48.488;13.436;2023-02-08T15:07:03;11.60;35.80
11239;DHT22;5677;48.488;13.436;2023-02-08T15:09:37;11.60;35.70
11239;DHT22;5677;48.488;13.436;2023-02-08T15:12:10;11.60;35.80
11239;DHT22;5677;48.488;13.436;2023-02-08T15:14:40;11.60;35.80
11239;DHT22;5677;48.488;13.436;2023-02-08T15:17:18;11.50;35.80
11239;DHT22;5677;48.488;13.436;2023-02-08T15:19:48;11.50;35.80
11239;DHT22;5677;48.488;13.436;2023-02-08T15:22:18;11.50;35.70
11239;DHT22;5677;48.488;13.436;2023-02-08T15:24:51;11.50;35.80
11239;DHT22;5677;48.488;13.436;2023-02-08T15:27:20;11.50;35.80
11239;DHT22;5677;48.488;13.436;2023-02-08T15:29:47;11.40;35.70
11239;DHT22;5677;48.488;13.436;2023-02-08T15:32:16;11.40;35.70
11239;DHT22;5677;48.488;13.436;2023-02-08T15:34:45;11.40;35.70
11239;DHT22;5677;48.488;13.436;2023-02-08T15:37:17;11.40;35.70
11239;DHT22;5677;48.488;13.436;2023-02-08T15:39:45;11.40;35.70
11239;DHT22;5677;48.488;13.436;2023-02-08T15:42:16;11.40;35.70
11239;DHT22;5677;48.488;13.436;2023-02-08T15:44:43;11.40;35.80
11239;DHT22;5677;48.488;13.436;2023-02-08T15:47:15;11.40;35.80
11239;DHT22;5677;48.488;13.436;2023-02-08T15:49:44;11.40;35.90
11239;DHT22;5677;48.488;13.436;2023-02-08T15:52:16;11.40;36.30
11239;DHT22;5677;48.488;13.436;2023-02-08T15:54:44;11.40;36.40
11239;DHT22;5677;48.488;13.436;2023-02-08T15:57:20;11.40;36.60
11239;DHT22;5677;48.488;13.436;2023-02-08T15:59:48;11.50;36.80
11239;DHT22;5677;48.488;13.436;2023-02-08T16:02:21;11.50;36.30